createdAt,value
2018-09-09T00:02:04.541Z,13.88
2018-09-09T00:04:36.286Z,13.65
2018-09-09T00:07:06.451Z,13.93
2018-09-09T00:09:50.822Z,13.02
2018-09-09T00:12:21.671Z,13.60
2018-09-09T00:14:50.820Z,13.23
2018-09-09T00:17:20.423Z,12.80
2018-09-09T00:19:49.014Z,13.02
2018-09-09T00:22:19.086Z,13.10
2018-09-09T00:24:50.618Z,13.77
2018-09-09T00:27:20.750Z,13.73
2018-09-09T00:29:49.312Z,12.45
2018-09-09T00:32:19.377Z,12.23
2018-09-09T00:34:49.521Z,12.32
2018-09-09T00:37:19.646Z,12.40
2018-09-09T00:39:48.332Z,12.73
2018-09-09T00:42:19.935Z,12.10
2018-09-09T00:44:50.098Z,11.85
2018-09-09T00:47:20.027Z,11.20
2018-09-09T00:50:06.450Z,11.68
2018-09-09T00:52:59.043Z,11.02
2018-09-09T00:55:31.002Z,11.40
2018-09-09T00:57:59.720Z,10.85
2018-09-09T01:00:47.638Z,11.02
2018-09-09T01:03:16.798Z,11.80
2018-09-09T01:05:46.938Z,11.00
2018-09-09T01:08:18.900Z,10.73
2018-09-09T01:10:50.536Z,10.98
2018-09-09T01:13:20.711Z,10.30
2018-09-09T01:15:51.600Z,10.25
2018-09-09T01:18:23.464Z,10.82
2018-09-09T01:20:54.445Z,10.98
2018-09-09T01:23:26.704Z,10.50
2018-09-09T01:25:58.293Z,11.25
2018-09-09T01:28:30.061Z,10.95
2018-09-09T01:31:01.700Z,10.65
2018-09-09T01:33:32.001Z,10.15
2018-09-09T01:36:00.640Z,10.93
2018-09-09T01:38:32.535Z,10.77
2018-09-09T01:41:01.151Z,11.23
2018-09-09T01:43:31.271Z,10.90
2018-09-09T01:46:03.113Z,10.65
2018-09-09T01:48:31.795Z,10.20
2018-09-09T01:51:03.362Z,10.35
2018-09-09T01:53:34.070Z,10.40
2018-09-09T01:56:04.860Z,10.50
2018-09-09T01:58:35.114Z,10.13
2018-09-09T02:01:05.325Z,10.25
2018-09-09T02:03:35.708Z,9.85
2018-09-09T02:06:05.783Z,9.77
2018-09-09T02:08:36.109Z,10.27
2018-09-09T02:11:04.274Z,9.55
2018-09-09T02:13:34.379Z,10.35
2018-09-09T02:16:04.694Z,9.70
2018-09-09T02:18:35.118Z,10.82
2018-09-09T02:21:05.246Z,9.88
2018-09-09T02:23:35.455Z,9.40
2018-09-09T02:26:05.763Z,9.82
2018-09-09T02:28:35.819Z,10.18
2018-09-09T02:31:07.431Z,9.23
2018-09-09T02:33:37.642Z,8.82
2018-09-09T02:36:07.740Z,8.30
2018-09-09T02:38:38.105Z,8.30
2018-09-09T02:41:08.466Z,8.77
2018-09-09T02:43:38.512Z,8.15
2018-09-09T02:46:08.778Z,9.73
2018-09-09T02:48:38.883Z,8.40
2018-09-09T02:51:09.162Z,8.23
2018-09-09T02:53:40.749Z,7.65
2018-09-09T02:56:12.477Z,8.70
2018-09-09T02:58:44.162Z,9.75
2018-09-09T03:01:14.880Z,9.48
2018-09-09T03:03:48.985Z,9.65
2018-09-09T03:06:19.258Z,10.60
2018-09-09T03:08:50.109Z,9.93
2018-09-09T03:11:21.524Z,9.32
2018-09-09T03:13:51.921Z,9.88
2018-09-09T03:16:23.581Z,10.25
2018-09-09T03:18:53.637Z,9.35
2018-09-09T03:21:24.250Z,9.43
2018-09-09T03:23:53.757Z,9.70
2018-09-09T03:26:23.829Z,10.18
2018-09-09T03:28:54.035Z,9.10
2018-09-09T03:31:26.375Z,8.88
2018-09-09T03:33:56.447Z,9.10
2018-09-09T03:36:27.939Z,9.07
2018-09-09T03:38:59.885Z,9.45
2018-09-09T03:41:31.431Z,9.52
2018-09-09T03:44:00.231Z,8.68
2018-09-09T03:46:30.583Z,7.87
2018-09-09T03:49:00.803Z,8.77
2018-09-09T03:51:30.828Z,8.85
2018-09-09T03:54:02.490Z,8.85
2018-09-09T03:56:31.204Z,8.45
2018-09-09T03:59:01.592Z,8.35
2018-09-09T04:01:31.443Z,8.82
2018-09-09T04:04:02.308Z,8.20
2018-09-09T04:06:34.756Z,8.77
2018-09-09T04:09:04.128Z,7.90
2018-09-09T04:11:33.516Z,8.27
2018-09-09T04:14:03.623Z,8.13
2018-09-09T04:16:35.295Z,8.27
2018-09-09T04:19:06.984Z,7.75
2018-09-09T04:21:53.387Z,8.15
2018-09-09T04:24:25.690Z,8.15
2018-09-09T04:26:55.882Z,7.25
2018-09-09T04:29:26.215Z,6.78
2018-09-09T04:31:56.450Z,6.87
2018-09-09T04:34:28.232Z,6.57
2018-09-09T04:36:57.081Z,7.43
2018-09-09T04:39:27.224Z,7.05
2018-09-09T04:41:58.891Z,7.60
2018-09-09T04:44:30.431Z,7.50
2018-09-09T04:47:02.021Z,7.00
2018-09-09T04:49:32.189Z,6.37
2018-09-09T04:52:03.898Z,7.03
2018-09-09T04:54:32.573Z,7.45
2018-09-09T04:57:04.305Z,7.18
2018-09-09T04:59:34.460Z,6.78
2018-09-09T05:02:03.324Z,6.87
2018-09-09T05:04:34.137Z,6.95
2018-09-09T05:07:06.400Z,7.15
2018-09-09T05:09:36.515Z,7.45
2018-09-09T05:12:05.892Z,7.32
2018-09-09T05:14:37.814Z,6.68
2018-09-09T05:17:07.937Z,6.03
2018-09-09T05:19:38.039Z,6.55
2018-09-09T05:22:09.672Z,6.65
2018-09-09T05:24:39.864Z,7.07
2018-09-09T05:27:09.856Z,6.80
2018-09-09T05:29:40.003Z,5.65
2018-09-09T05:32:11.618Z,6.62
2018-09-09T05:34:43.181Z,6.28
2018-09-09T05:37:11.913Z,6.43
2018-09-09T05:39:41.663Z,7.18
2018-09-09T05:42:13.418Z,6.90
2018-09-09T05:44:41.555Z,6.35
2018-09-09T05:47:13.543Z,7.18
2018-09-09T05:49:43.649Z,6.65
2018-09-09T05:52:13.996Z,5.90
2018-09-09T05:54:43.352Z,7.57
2018-09-09T05:57:15.049Z,7.35
2018-09-09T05:59:46.722Z,6.80
2018-09-09T06:02:18.438Z,7.07
2018-09-09T06:04:48.595Z,6.50
2018-09-09T06:07:20.456Z,6.57
2018-09-09T06:09:50.605Z,6.80
2018-09-09T06:12:20.674Z,5.70
2018-09-09T06:14:50.796Z,5.97
2018-09-09T06:17:20.916Z,6.25
2018-09-09T06:19:51.101Z,6.00
2018-09-09T06:22:19.758Z,6.68
2018-09-09T06:24:48.431Z,6.28
2018-09-09T06:27:18.692Z,5.78
2018-09-09T06:29:50.568Z,6.82
2018-09-09T06:32:19.680Z,6.87
2018-09-09T06:34:51.243Z,6.43
2018-09-09T06:37:19.836Z,6.65
2018-09-09T06:39:51.513Z,6.85
2018-09-09T06:42:21.526Z,6.37
2018-09-09T06:44:53.372Z,6.35
2018-09-09T06:47:22.084Z,6.82
2018-09-09T06:49:50.820Z,6.57
2018-09-09T06:52:20.873Z,6.90
2018-09-09T06:54:50.923Z,6.93
2018-09-09T06:57:21.084Z,6.40
2018-09-09T06:59:51.150Z,7.53
2018-09-09T07:02:21.267Z,7.05
2018-09-09T07:04:51.367Z,6.90
2018-09-09T07:07:21.199Z,7.30
2018-09-09T07:09:50.771Z,6.85
2018-09-09T07:12:20.864Z,7.10
2018-09-09T07:14:51.062Z,7.87
2018-09-09T07:17:19.701Z,7.85
2018-09-09T07:19:49.918Z,6.18
2018-09-09T07:22:20.099Z,6.78
2018-09-09T07:24:50.197Z,7.18
2018-09-09T07:27:20.249Z,6.87
2018-09-09T07:29:48.940Z,7.05
2018-09-09T07:32:19.091Z,6.65
2018-09-09T07:34:50.817Z,7.65
2018-09-09T07:37:21.049Z,7.37
2018-09-09T07:39:49.676Z,6.57
2018-09-09T07:42:20.189Z,8.25
2018-09-09T07:44:50.473Z,7.68
2018-09-09T07:47:19.103Z,7.90
2018-09-09T07:49:47.666Z,8.10
2018-09-09T07:52:16.249Z,7.07
2018-09-09T07:54:44.834Z,6.43
2018-09-09T07:57:14.922Z,7.70
2018-09-09T07:59:45.353Z,6.55
2018-09-09T08:02:14.063Z,6.93
2018-09-09T08:04:42.328Z,6.30
2018-09-09T08:07:12.924Z,6.28
2018-09-09T08:09:43.399Z,6.03
2018-09-09T08:12:15.139Z,6.87
2018-09-09T08:14:43.613Z,6.20
2018-09-09T08:17:15.364Z,5.95
2018-09-09T08:19:47.244Z,6.30
2018-09-09T08:22:18.757Z,5.45
2018-09-09T08:24:50.393Z,6.05
2018-09-09T08:27:20.832Z,5.70
2018-09-09T08:29:49.494Z,5.70
2018-09-09T08:32:18.065Z,5.03
2018-09-09T08:34:48.267Z,5.10
2018-09-09T08:37:18.270Z,4.82
2018-09-09T08:39:48.672Z,5.03
2018-09-09T08:42:17.860Z,4.70
2018-09-09T08:44:46.404Z,4.60
2018-09-09T08:47:17.924Z,4.55
2018-09-09T08:49:48.272Z,4.47
2018-09-09T08:52:20.161Z,4.37
2018-09-09T08:54:48.833Z,3.97
2018-09-09T08:57:18.888Z,4.25
2018-09-09T08:59:50.084Z,4.35
2018-09-09T09:02:19.667Z,4.35
2018-09-09T09:04:49.886Z,3.92
2018-09-09T09:07:20.042Z,3.70
2018-09-09T09:09:48.642Z,3.90
2018-09-09T09:12:18.789Z,4.12
2018-09-09T09:14:48.999Z,3.65
2018-09-09T09:17:19.294Z,3.30
2018-09-09T09:19:47.871Z,3.60
2018-09-09T09:22:18.011Z,3.08
2018-09-09T09:24:46.678Z,3.62
2018-09-09T09:27:16.887Z,2.60
2018-09-09T09:29:59.360Z,2.20
2018-09-09T09:32:29.574Z,2.60
2018-09-09T09:35:00.002Z,3.22
2018-09-09T09:37:31.699Z,2.60
2018-09-09T09:40:02.241Z,2.75
2018-09-09T09:42:32.319Z,2.62
2018-09-09T09:45:03.762Z,2.62
2018-09-09T09:47:35.529Z,3.25
2018-09-09T09:50:04.249Z,2.90
2018-09-09T09:52:35.984Z,3.10
2018-09-09T09:55:06.199Z,2.78
2018-09-09T09:57:36.275Z,3.00
2018-09-09T10:00:07.266Z,3.53
2018-09-09T10:02:37.479Z,3.70
2018-09-09T10:05:07.742Z,3.40
2018-09-09T10:07:39.679Z,3.40
2018-09-09T10:10:08.474Z,3.37
2018-09-09T10:12:40.009Z,3.37
2018-09-09T10:15:10.323Z,3.03
2018-09-09T10:17:42.142Z,3.87
2018-09-09T10:20:12.141Z,3.45
2018-09-09T10:22:43.840Z,2.97
2018-09-09T10:25:14.792Z,2.65
2018-09-09T10:27:45.237Z,2.45
2018-09-09T10:30:15.344Z,2.78
2018-09-09T10:32:45.550Z,3.12
2018-09-09T10:35:15.833Z,2.55
2018-09-09T10:37:46.023Z,2.80
2018-09-09T10:40:17.122Z,3.33
2018-09-09T10:42:48.672Z,2.80
2018-09-09T10:45:17.311Z,3.33
2018-09-09T10:47:47.369Z,3.03
2018-09-09T10:50:17.510Z,3.33
2018-09-09T10:52:47.753Z,2.83
2018-09-09T10:55:18.061Z,3.35
2018-09-09T10:57:48.495Z,3.17
2018-09-09T11:00:17.111Z,3.53
2018-09-09T11:02:47.425Z,3.30
2018-09-09T11:05:16.005Z,3.22
2018-09-09T11:07:44.729Z,3.30
2018-09-09T11:10:16.281Z,2.87
2018-09-09T11:12:47.824Z,3.33
2018-09-09T11:15:18.028Z,3.30
2018-09-09T11:17:49.705Z,3.25
2018-09-09T11:20:18.334Z,3.30
2018-09-09T11:22:48.618Z,3.35
2018-09-09T11:25:18.346Z,3.40
2018-09-09T11:27:46.566Z,3.10
2018-09-09T11:30:15.925Z,3.03
2018-09-09T11:32:46.045Z,3.47
2018-09-09T11:35:14.591Z,3.10
2018-09-09T11:37:43.179Z,3.70
2018-09-09T11:40:14.801Z,2.72
2018-09-09T11:42:43.936Z,2.75
2018-09-09T11:45:12.624Z,3.00
2018-09-09T11:47:42.285Z,2.72
2018-09-09T11:50:14.056Z,2.80
2018-09-09T11:52:45.820Z,2.67
2018-09-09T11:55:14.426Z,3.25
2018-09-09T11:57:46.072Z,3.40
2018-09-09T12:00:17.835Z,2.62
2018-09-09T12:02:48.035Z,3.30
2018-09-09T12:05:16.634Z,2.83
2018-09-09T12:07:45.206Z,3.58
2018-09-09T12:10:13.716Z,3.60
2018-09-09T12:12:43.895Z,2.80
2018-09-09T12:15:14.108Z,2.60
2018-09-09T12:17:42.708Z,2.85
2018-09-09T12:20:12.039Z,2.72
2018-09-09T12:22:43.803Z,2.97
2018-09-09T12:25:15.389Z,2.87
2018-09-09T12:27:47.750Z,2.50
2018-09-09T12:30:17.235Z,2.53
2018-09-09T12:32:47.567Z,2.28
2018-09-09T12:35:19.366Z,2.45
2018-09-09T12:37:49.608Z,3.10
2018-09-09T12:40:18.191Z,2.15
2018-09-09T12:42:52.726Z,2.30
2018-09-09T12:45:41.489Z,2.45
2018-09-09T12:48:28.108Z,2.35
2018-09-09T12:50:59.884Z,2.60
2018-09-09T12:53:28.416Z,2.00
2018-09-09T12:55:58.441Z,2.30
2018-09-09T12:58:28.765Z,2.33
2018-09-09T13:00:59.023Z,2.15
2018-09-09T13:03:29.134Z,2.10
2018-09-09T13:05:59.301Z,2.37
2018-09-09T13:08:28.540Z,2.00
2018-09-09T13:10:57.103Z,2.22
2018-09-09T13:13:27.354Z,2.30
2018-09-09T13:15:57.551Z,2.20
2018-09-09T13:18:26.047Z,2.40
2018-09-09T13:20:57.902Z,2.10
2018-09-09T13:23:27.900Z,2.12
2018-09-09T13:25:56.481Z,2.62
2018-09-09T13:28:26.729Z,2.47
2018-09-09T13:30:56.723Z,2.67
2018-09-09T13:33:25.234Z,2.25
2018-09-09T13:35:55.233Z,2.40
2018-09-09T13:38:27.077Z,2.55
2018-09-09T13:40:55.566Z,2.67
2018-09-09T13:43:24.203Z,2.70
2018-09-09T13:45:54.492Z,2.60
2018-09-09T13:48:24.721Z,2.62
2018-09-09T13:50:54.776Z,2.78
2018-09-09T13:53:25.568Z,2.78
2018-09-09T13:55:57.292Z,2.55
2018-09-09T13:58:25.979Z,2.42
2018-09-09T14:00:56.066Z,2.62
2018-09-09T14:03:24.509Z,2.37
2018-09-09T14:05:54.606Z,2.10
2018-09-09T14:08:26.460Z,2.50
2018-09-09T14:10:58.286Z,2.72
2018-09-09T14:13:28.456Z,2.30
2018-09-09T14:16:00.084Z,2.10
2018-09-09T14:18:30.448Z,2.15
2018-09-09T14:20:59.139Z,2.50
2018-09-09T14:23:27.769Z,2.30
2018-09-09T14:25:57.837Z,2.80
2018-09-09T14:28:29.403Z,1.83
2018-09-09T14:30:59.627Z,2.33
2018-09-09T14:33:30.121Z,2.20
2018-09-09T14:35:57.828Z,2.20
2018-09-09T14:38:29.552Z,2.08
2018-09-09T14:41:00.231Z,1.80
2018-09-09T14:43:30.635Z,2.00
2018-09-09T14:46:02.378Z,2.12
2018-09-09T14:48:32.553Z,2.12
2018-09-09T14:51:01.516Z,1.90
2018-09-09T14:53:31.394Z,2.10
2018-09-09T14:56:01.837Z,2.47
2018-09-09T14:58:33.597Z,1.90
2018-09-09T15:01:03.752Z,2.33
2018-09-09T15:03:34.160Z,2.15
2018-09-09T15:06:02.692Z,2.55
2018-09-09T15:08:33.028Z,2.35
2018-09-09T15:11:01.632Z,2.42
2018-09-09T15:13:33.267Z,2.30
2018-09-09T15:16:01.839Z,2.50
2018-09-09T15:18:33.825Z,2.22
2018-09-09T15:21:02.512Z,1.80
2018-09-09T15:23:33.455Z,2.30
2018-09-09T15:26:03.555Z,2.35
2018-09-09T15:28:35.169Z,2.20
2018-09-09T15:31:05.212Z,1.73
2018-09-09T15:33:36.954Z,2.10
2018-09-09T15:36:08.701Z,2.33
2018-09-09T15:38:38.836Z,2.00
2018-09-09T15:41:09.524Z,1.90
2018-09-09T15:43:39.914Z,2.20
2018-09-09T15:46:10.262Z,1.80
2018-09-09T15:48:40.472Z,2.10
2018-09-09T15:51:10.482Z,1.95
2018-09-09T15:53:40.613Z,1.92
2018-09-09T15:56:09.176Z,1.77
2018-09-09T15:58:40.928Z,1.85
2018-09-09T16:01:09.551Z,1.90
2018-09-09T16:03:39.733Z,1.85
2018-09-09T16:06:10.740Z,1.98
2018-09-09T16:08:40.902Z,1.60
2018-09-09T16:11:12.658Z,2.05
2018-09-09T16:13:42.695Z,2.00
2018-09-09T16:16:12.654Z,1.58
2018-09-09T16:18:43.114Z,1.65
2018-09-09T16:21:13.274Z,1.80
2018-09-09T16:23:43.333Z,1.60
2018-09-09T16:26:12.057Z,1.87
2018-09-09T16:28:43.563Z,1.48
2018-09-09T16:31:13.645Z,2.00
2018-09-09T16:33:43.933Z,1.70
2018-09-09T16:36:15.616Z,1.67
2018-09-09T16:38:45.845Z,1.60
2018-09-09T16:41:14.603Z,1.60
2018-09-09T16:43:44.824Z,1.73
2018-09-09T16:46:14.978Z,1.80
2018-09-09T16:48:45.339Z,1.67
2018-09-09T16:51:15.386Z,1.70
2018-09-09T16:53:45.563Z,1.70
2018-09-09T16:56:16.376Z,1.65
2018-09-09T16:58:44.951Z,1.95
2018-09-09T17:01:16.660Z,1.75
2018-09-09T17:03:48.188Z,2.12
2018-09-09T17:06:19.672Z,2.22
2018-09-09T17:08:49.819Z,2.75
2018-09-09T17:11:20.109Z,2.35
2018-09-09T17:13:50.275Z,2.28
2018-09-09T17:16:20.883Z,2.25
2018-09-09T17:18:49.500Z,2.62
2018-09-09T17:21:18.080Z,2.20
2018-09-09T17:23:49.546Z,1.90
2018-09-09T17:26:19.669Z,1.83
2018-09-09T17:28:49.678Z,2.10
2018-09-09T17:31:21.275Z,2.25
2018-09-09T17:33:51.490Z,2.30
2018-09-09T17:36:21.583Z,2.50
2018-09-09T17:38:51.648Z,2.28
2018-09-09T17:41:20.238Z,1.98
2018-09-09T17:43:50.390Z,2.37
2018-09-09T17:46:19.140Z,2.42
2018-09-09T17:48:51.114Z,2.55
2018-09-09T17:51:22.752Z,2.70
2018-09-09T17:53:52.826Z,3.28
2018-09-09T17:56:23.011Z,3.75
2018-09-09T17:58:54.713Z,3.28
2018-09-09T18:01:23.760Z,3.67
2018-09-09T18:03:51.595Z,3.28
2018-09-09T18:06:23.489Z,3.12
2018-09-09T18:08:55.056Z,3.08
2018-09-09T18:11:26.695Z,4.00
2018-09-09T18:13:56.765Z,4.40
2018-09-09T18:16:25.550Z,3.97
2018-09-09T18:18:57.132Z,4.20
2018-09-09T18:21:28.847Z,4.40
2018-09-09T18:24:00.479Z,4.90
2018-09-09T18:26:32.453Z,4.50
2018-09-09T18:29:02.502Z,4.00
2018-09-09T18:31:32.604Z,4.28
2018-09-09T18:34:01.249Z,4.47
2018-09-09T18:36:31.395Z,3.90
2018-09-09T18:39:00.556Z,4.25
2018-09-09T18:41:30.793Z,4.45
2018-09-09T18:44:02.350Z,4.50
2018-09-09T18:46:33.997Z,3.83
2018-09-09T18:49:02.638Z,4.03
2018-09-09T18:51:32.841Z,3.97
2018-09-09T18:54:04.406Z,3.67
2018-09-09T18:56:36.055Z,3.60
2018-09-09T18:59:07.724Z,4.18
2018-09-09T19:01:37.770Z,4.28
2018-09-09T19:04:08.491Z,4.05
2018-09-09T19:06:40.172Z,4.00
2018-09-09T19:09:10.769Z,4.30
2018-09-09T19:11:42.568Z,3.92
2018-09-09T19:14:14.068Z,3.87
2018-09-09T19:16:45.661Z,4.10
2018-09-09T19:19:15.906Z,4.22
2018-09-09T19:21:46.584Z,4.07
2018-09-09T19:24:16.382Z,5.30
2018-09-09T19:26:46.577Z,4.47
2018-09-09T19:29:18.131Z,4.72
2018-09-09T19:31:48.154Z,4.82
2018-09-09T19:34:19.914Z,4.03
2018-09-09T19:36:49.213Z,4.12
2018-09-09T19:39:20.886Z,4.10
2018-09-09T19:41:51.266Z,3.70
2018-09-09T19:44:20.889Z,4.22
2018-09-09T19:46:51.029Z,3.95
2018-09-09T19:49:19.704Z,4.87
2018-09-09T19:51:48.895Z,4.82
2018-09-09T19:54:20.395Z,3.80
2018-09-09T19:56:51.923Z,4.12
2018-09-09T19:59:21.418Z,3.55
2018-09-09T20:01:50.714Z,3.75
2018-09-09T20:04:22.373Z,3.62
2018-09-09T20:06:52.471Z,3.30
2018-09-09T20:09:24.255Z,3.47
2018-09-09T20:11:52.871Z,3.30
2018-09-09T20:14:22.954Z,3.37
2018-09-09T20:16:54.492Z,3.20
2018-09-09T20:19:24.587Z,3.35
2018-09-09T20:21:53.788Z,2.80
2018-09-09T20:24:24.405Z,2.87
2018-09-09T20:26:56.115Z,2.90
2018-09-09T20:29:23.911Z,2.83
2018-09-09T20:31:52.543Z,2.83
2018-09-09T20:34:22.726Z,3.10
2018-09-09T20:36:52.914Z,2.72
2018-09-09T20:39:23.397Z,2.78
2018-09-09T20:41:53.520Z,3.37
2018-09-09T20:44:25.156Z,3.08
2018-09-09T20:46:53.872Z,2.90
2018-09-09T20:49:24.266Z,2.78
2018-09-09T20:51:52.870Z,2.85
2018-09-09T20:54:23.083Z,3.10
2018-09-09T20:56:53.150Z,2.75
2018-09-09T20:59:23.209Z,3.00
2018-09-09T21:01:51.892Z,3.20
2018-09-09T21:04:23.539Z,2.50
2018-09-09T21:06:55.208Z,2.70
2018-09-09T21:09:25.317Z,3.10
2018-09-09T21:11:55.650Z,2.83
2018-09-09T21:14:25.825Z,3.37
2018-09-09T21:16:55.878Z,3.55
2018-09-09T21:19:26.004Z,3.30
2018-09-09T21:21:56.049Z,4.32
2018-09-09T21:24:26.165Z,4.65
2018-09-09T21:26:56.623Z,3.85
2018-09-09T21:29:25.216Z,4.93
2018-09-09T21:31:53.770Z,3.72
2018-09-09T21:34:25.463Z,3.55
2018-09-09T21:36:55.596Z,2.80
2018-09-09T21:39:27.200Z,2.40
2018-09-09T21:41:57.366Z,2.80
2018-09-09T21:44:28.853Z,2.83
2018-09-09T21:47:00.668Z,2.62
2018-09-09T21:49:31.483Z,2.85
2018-09-09T21:52:02.990Z,2.40
2018-09-09T21:54:33.400Z,3.40
2018-09-09T21:57:06.204Z,3.45
2018-09-09T21:59:36.754Z,4.70
2018-09-09T22:02:11.781Z,4.82
2018-09-09T22:04:41.920Z,5.85
2018-09-09T22:07:15.579Z,6.57
2018-09-09T22:09:47.231Z,7.35
2018-09-09T22:12:17.350Z,7.55
2018-09-09T22:14:47.553Z,10.23
2018-09-09T22:17:19.281Z,7.68
2018-09-09T22:19:47.873Z,7.37
2018-09-09T22:22:16.735Z,6.68
2018-09-09T22:24:48.189Z,6.32
2018-09-09T22:27:18.326Z,5.22
2018-09-09T22:29:48.449Z,5.55
2018-09-09T22:32:17.074Z,4.97
2018-09-09T22:34:46.280Z,5.00
2018-09-09T22:37:15.092Z,4.18
2018-09-09T22:39:43.706Z,4.37
2018-09-09T22:42:12.717Z,4.60
2018-09-09T22:44:42.952Z,4.43
2018-09-09T22:47:14.644Z,7.28
2018-09-09T22:49:44.727Z,8.43
2018-09-09T22:52:16.287Z,8.38
2018-09-09T22:54:46.913Z,5.97
2018-09-09T22:57:18.640Z,5.75
2018-09-09T22:59:48.953Z,5.00
2018-09-09T23:02:20.560Z,5.05
2018-09-09T23:04:50.626Z,5.10
2018-09-09T23:07:22.118Z,5.30
2018-09-09T23:09:52.223Z,5.40
2018-09-09T23:12:22.999Z,4.78
2018-09-09T23:14:53.403Z,5.43
2018-09-09T23:17:25.119Z,5.85
2018-09-09T23:19:55.233Z,6.50
2018-09-09T23:22:26.355Z,6.78
2018-09-09T23:24:58.255Z,8.40
2018-09-09T23:27:28.675Z,6.65
2018-09-09T23:30:00.511Z,6.37
2018-09-09T23:32:31.568Z,6.55
2018-09-09T23:35:01.899Z,5.50
2018-09-09T23:37:32.554Z,5.80
2018-09-09T23:40:04.598Z,6.05
2018-09-09T23:42:34.939Z,6.40
2018-09-09T23:45:06.541Z,5.87
2018-09-09T23:47:38.358Z,6.00
2018-09-09T23:50:10.855Z,6.37
2018-09-09T23:52:41.354Z,5.93
2018-09-09T23:55:11.513Z,5.82
2018-09-09T23:57:41.648Z,6.22
